sensor_id;sensor_type;location;lat;lon;timestamp;P1;durP1;ratioP1;P2;durP2;ratioP2
22314;SDS011;11325;55.686;37.566;2023-06-22T00:01:05;15.00;;;4.20;;
22314;SDS011;11325;55.686;37.566;2023-06-22T00:03:34;10.85;;;4.33;;
22314;SDS011;11325;55.686;37.566;2023-06-22T00:06:13;6.67;;;4.40;;
22314;SDS011;11325;55.686;37.566;2023-06-22T00:08:41;7.72;;;4.00;;
22314;SDS011;11325;55.686;37.566;2023-06-22T00:11:22;9.45;;;4.40;;
22314;SDS011;11325;55.686;37.566;2023-06-22T00:13:51;6.60;;;4.33;;
22314;SDS011;11325;55.686;37.566;2023-06-22T00:16:19;8.58;;;4.10;;
22314;SDS011;11325;55.686;37.566;2023-06-22T00:18:57;6.72;;;3.87;;
22314;SDS011;11325;55.686;37.566;2023-06-22T00:21:38;8.75;;;4.25;;
22314;SDS011;11325;55.686;37.566;2023-06-22T00:24:17;9.95;;;4.08;;
22314;SDS011;11325;55.686;37.566;2023-06-22T00:26:56;7.40;;;4.17;;
22314;SDS011;11325;55.686;37.566;2023-06-22T00:29:24;13.48;;;4.33;;
22314;SDS011;11325;55.686;37.566;2023-06-22T00:31:53;5.47;;;3.72;;
22314;SDS011;11325;55.686;37.566;2023-06-22T00:34:32;7.22;;;4.40;;
22314;SDS011;11325;55.686;37.566;2023-06-22T00:37:01;9.33;;;3.85;;
22314;SDS011;11325;55.686;37.566;2023-06-22T00:39:40;6.22;;;4.22;;
22314;SDS011;11325;55.686;37.566;2023-06-22T00:42:09;8.75;;;4.12;;
22314;SDS011;11325;55.686;37.566;2023-06-22T00:44:37;9.23;;;4.10;;
22314;SDS011;11325;55.686;37.566;2023-06-22T00:47:17;7.87;;;4.08;;
22314;SDS011;11325;55.686;37.566;2023-06-22T00:49:47;8.68;;;3.72;;
22314;SDS011;11325;55.686;37.566;2023-06-22T00:52:25;8.28;;;3.75;;
22314;SDS011;11325;55.686;37.566;2023-06-22T00:55:07;7.42;;;3.90;;
22314;SDS011;11325;55.686;37.566;2023-06-22T00:57:35;7.35;;;3.87;;
22314;SDS011;11325;55.686;37.566;2023-06-22T01:00:15;7.33;;;3.92;;
22314;SDS011;11325;55.686;37.566;2023-06-22T01:02:57;9.70;;;3.50;;
22314;SDS011;11325;55.686;37.566;2023-06-22T01:05:41;6.28;;;3.87;;
22314;SDS011;11325;55.686;37.566;2023-06-22T01:11:01;6.12;;;3.47;;
22314;SDS011;11325;55.686;37.566;2023-06-22T01:13:40;11.38;;;3.45;;
22314;SDS011;11325;55.686;37.566;2023-06-22T01:16:08;8.73;;;3.00;;
22314;SDS011;11325;55.686;37.566;2023-06-22T01:18:38;6.78;;;3.87;;
22314;SDS011;11325;55.686;37.566;2023-06-22T01:21:18;5.15;;;3.47;;
22314;SDS011;11325;55.686;37.566;2023-06-22T01:29:04;9.08;;;3.83;;
22314;SDS011;11325;55.686;37.566;2023-06-22T01:31:35;9.38;;;4.03;;
22314;SDS011;11325;55.686;37.566;2023-06-22T01:34:04;5.50;;;3.80;;
22314;SDS011;11325;55.686;37.566;2023-06-22T01:36:33;7.00;;;3.72;;
22314;SDS011;11325;55.686;37.566;2023-06-22T01:39:02;4.75;;;3.42;;
22314;SDS011;11325;55.686;37.566;2023-06-22T01:41:44;10.60;;;3.22;;
22314;SDS011;11325;55.686;37.566;2023-06-22T01:44:14;13.83;;;4.30;;
22314;SDS011;11325;55.686;37.566;2023-06-22T01:46:43;5.40;;;3.25;;
22314;SDS011;11325;55.686;37.566;2023-06-22T01:49:12;6.85;;;3.80;;
22314;SDS011;11325;55.686;37.566;2023-06-22T01:51:51;8.68;;;3.77;;
22314;SDS011;11325;55.686;37.566;2023-06-22T01:54:21;10.88;;;3.60;;
22314;SDS011;11325;55.686;37.566;2023-06-22T01:57:00;8.08;;;3.52;;
22314;SDS011;11325;55.686;37.566;2023-06-22T01:59:32;9.38;;;3.95;;
22314;SDS011;11325;55.686;37.566;2023-06-22T02:02:01;8.38;;;3.98;;
22314;SDS011;11325;55.686;37.566;2023-06-22T02:04:44;5.12;;;3.55;;
22314;SDS011;11325;55.686;37.566;2023-06-22T02:09:53;8.20;;;3.60;;
22314;SDS011;11325;55.686;37.566;2023-06-22T02:12:23;4.33;;;3.40;;
22314;SDS011;11325;55.686;37.566;2023-06-22T02:15:06;4.25;;;3.22;;
22314;SDS011;11325;55.686;37.566;2023-06-22T02:17:35;7.67;;;4.00;;
22314;SDS011;11325;55.686;37.566;2023-06-22T02:20:04;6.28;;;3.50;;
22314;SDS011;11325;55.686;37.566;2023-06-22T02:22:45;7.75;;;3.55;;
22314;SDS011;11325;55.686;37.566;2023-06-22T02:25:13;7.25;;;3.75;;
22314;SDS011;11325;55.686;37.566;2023-06-22T02:27:42;6.62;;;3.65;;
22314;SDS011;11325;55.686;37.566;2023-06-22T02:30:11;6.95;;;3.42;;
22314;SDS011;11325;55.686;37.566;2023-06-22T02:32:40;6.90;;;3.62;;
22314;SDS011;11325;55.686;37.566;2023-06-22T02:35:20;7.40;;;3.90;;
22314;SDS011;11325;55.686;37.566;2023-06-22T02:38:01;8.13;;;3.58;;
22314;SDS011;11325;55.686;37.566;2023-06-22T02:40:40;6.28;;;3.52;;
22314;SDS011;11325;55.686;37.566;2023-06-22T02:43:25;8.93;;;3.55;;
22314;SDS011;11325;55.686;37.566;2023-06-22T02:45:53;12.05;;;3.75;;
22314;SDS011;11325;55.686;37.566;2023-06-22T02:48:22;8.13;;;3.77;;
22314;SDS011;11325;55.686;37.566;2023-06-22T02:50:50;11.00;;;3.92;;
22314;SDS011;11325;55.686;37.566;2023-06-22T02:53:19;9.00;;;4.03;;
22314;SDS011;11325;55.686;37.566;2023-06-22T02:55:48;7.17;;;3.30;;
22314;SDS011;11325;55.686;37.566;2023-06-22T02:58:16;5.92;;;3.80;;
22314;SDS011;11325;55.686;37.566;2023-06-22T03:00:45;6.20;;;3.35;;
22314;SDS011;11325;55.686;37.566;2023-06-22T03:03:14;4.60;;;3.00;;
22314;SDS011;11325;55.686;37.566;2023-06-22T03:05:42;6.75;;;4.10;;
22314;SDS011;11325;55.686;37.566;2023-06-22T03:08:11;9.85;;;3.92;;
22314;SDS011;11325;55.686;37.566;2023-06-22T03:10:50;14.50;;;5.03;;
22314;SDS011;11325;55.686;37.566;2023-06-22T03:13:19;6.20;;;4.10;;
22314;SDS011;11325;55.686;37.566;2023-06-22T03:15:58;11.30;;;4.53;;
22314;SDS011;11325;55.686;37.566;2023-06-22T03:18:27;9.75;;;4.50;;
22314;SDS011;11325;55.686;37.566;2023-06-22T03:21:07;8.25;;;3.92;;
22314;SDS011;11325;55.686;37.566;2023-06-22T03:23:36;6.28;;;3.95;;
22314;SDS011;11325;55.686;37.566;2023-06-22T03:26:04;7.45;;;4.08;;
22314;SDS011;11325;55.686;37.566;2023-06-22T03:28:43;8.43;;;3.87;;
22314;SDS011;11325;55.686;37.566;2023-06-22T03:31:22;9.23;;;3.70;;
22314;SDS011;11325;55.686;37.566;2023-06-22T03:33:50;7.92;;;3.85;;
22314;SDS011;11325;55.686;37.566;2023-06-22T03:36:19;13.50;;;3.87;;
22314;SDS011;11325;55.686;37.566;2023-06-22T03:38:58;5.90;;;3.77;;
22314;SDS011;11325;55.686;37.566;2023-06-22T03:41:27;5.40;;;3.40;;
22314;SDS011;11325;55.686;37.566;2023-06-22T03:44:06;8.68;;;3.50;;
22314;SDS011;11325;55.686;37.566;2023-06-22T03:46:36;12.78;;;4.20;;
22314;SDS011;11325;55.686;37.566;2023-06-22T03:49:05;9.33;;;3.92;;
22314;SDS011;11325;55.686;37.566;2023-06-22T03:51:44;7.00;;;3.62;;
22314;SDS011;11325;55.686;37.566;2023-06-22T03:54:12;11.12;;;3.87;;
22314;SDS011;11325;55.686;37.566;2023-06-22T03:56:41;4.47;;;3.75;;
22314;SDS011;11325;55.686;37.566;2023-06-22T03:59:09;11.95;;;4.78;;
22314;SDS011;11325;55.686;37.566;2023-06-22T04:01:38;9.08;;;4.25;;
22314;SDS011;11325;55.686;37.566;2023-06-22T04:04:07;7.15;;;3.75;;
22314;SDS011;11325;55.686;37.566;2023-06-22T04:06:46;14.55;;;4.15;;
22314;SDS011;11325;55.686;37.566;2023-06-22T04:09:16;11.93;;;3.83;;
22314;SDS011;11325;55.686;37.566;2023-06-22T04:11:45;7.55;;;3.33;;
22314;SDS011;11325;55.686;37.566;2023-06-22T04:14:13;8.05;;;3.27;;
22314;SDS011;11325;55.686;37.566;2023-06-22T04:16:42;5.78;;;3.25;;
22314;SDS011;11325;55.686;37.566;2023-06-22T04:19:21;8.45;;;3.72;;
22314;SDS011;11325;55.686;37.566;2023-06-22T04:22:01;10.75;;;3.40;;
22314;SDS011;11325;55.686;37.566;2023-06-22T04:24:29;7.90;;;3.20;;
22314;SDS011;11325;55.686;37.566;2023-06-22T04:27:08;7.70;;;3.27;;
22314;SDS011;11325;55.686;37.566;2023-06-22T04:29:36;3.72;;;2.90;;
22314;SDS011;11325;55.686;37.566;2023-06-22T04:32:16;10.25;;;4.05;;
22314;SDS011;11325;55.686;37.566;2023-06-22T04:34:45;3.70;;;3.30;;
22314;SDS011;11325;55.686;37.566;2023-06-22T04:37:13;8.13;;;3.67;;
22314;SDS011;11325;55.686;37.566;2023-06-22T04:39:43;4.30;;;3.25;;
22314;SDS011;11325;55.686;37.566;2023-06-22T04:42:22;6.05;;;3.87;;
22314;SDS011;11325;55.686;37.566;2023-06-22T04:45:01;10.10;;;3.58;;
22314;SDS011;11325;55.686;37.566;2023-06-22T04:47:30;6.65;;;3.98;;
22314;SDS011;11325;55.686;37.566;2023-06-22T04:49:59;7.58;;;3.47;;
22314;SDS011;11325;55.686;37.566;2023-06-22T04:52:30;9.55;;;3.83;;
22314;SDS011;11325;55.686;37.566;2023-06-22T04:54:58;8.75;;;4.05;;
22314;SDS011;11325;55.686;37.566;2023-06-22T04:57:38;7.03;;;3.72;;
22314;SDS011;11325;55.686;37.566;2023-06-22T05:00:18;9.60;;;3.30;;
22314;SDS011;11325;55.686;37.566;2023-06-22T05:02:47;6.47;;;3.35;;
22314;SDS011;11325;55.686;37.566;2023-06-22T05:05:15;7.25;;;3.83;;
22314;SDS011;11325;55.686;37.566;2023-06-22T05:07:45;9.20;;;3.92;;
22314;SDS011;11325;55.686;37.566;2023-06-22T05:10:15;6.97;;;3.98;;
22314;SDS011;11325;55.686;37.566;2023-06-22T05:12:45;6.45;;;3.70;;
22314;SDS011;11325;55.686;37.566;2023-06-22T05:15:14;8.45;;;3.90;;
22314;SDS011;11325;55.686;37.566;2023-06-22T05:17:43;4.22;;;3.00;;
22314;SDS011;11325;55.686;37.566;2023-06-22T05:20:12;8.45;;;3.85;;
22314;SDS011;11325;55.686;37.566;2023-06-22T05:22:51;10.88;;;3.70;;
22314;SDS011;11325;55.686;37.566;2023-06-22T05:25:20;10.28;;;3.45;;
22314;SDS011;11325;55.686;37.566;2023-06-22T05:28:02;9.18;;;3.65;;
22314;SDS011;11325;55.686;37.566;2023-06-22T05:30:32;6.72;;;3.60;;
22314;SDS011;11325;55.686;37.566;2023-06-22T05:33:11;6.03;;;3.75;;
22314;SDS011;11325;55.686;37.566;2023-06-22T05:35:39;5.53;;;3.45;;
22314;SDS011;11325;55.686;37.566;2023-06-22T05:38:09;6.33;;;3.80;;
22314;SDS011;11325;55.686;37.566;2023-06-22T05:40:48;9.75;;;3.92;;
22314;SDS011;11325;55.686;37.566;2023-06-22T05:43:16;13.45;;;3.92;;
22314;SDS011;11325;55.686;37.566;2023-06-22T05:45:56;11.18;;;3.40;;
22314;SDS011;11325;55.686;37.566;2023-06-22T05:48:35;5.97;;;3.42;;
22314;SDS011;11325;55.686;37.566;2023-06-22T05:51:04;14.00;;;3.30;;
22314;SDS011;11325;55.686;37.566;2023-06-22T05:53:32;12.80;;;3.72;;
22314;SDS011;11325;55.686;37.566;2023-06-22T05:56:01;11.60;;;3.85;;
22314;SDS011;11325;55.686;37.566;2023-06-22T05:58:40;5.08;;;3.40;;
22314;SDS011;11325;55.686;37.566;2023-06-22T06:01:09;7.05;;;3.72;;
22314;SDS011;11325;55.686;37.566;2023-06-22T06:03:48;12.53;;;4.45;;
22314;SDS011;11325;55.686;37.566;2023-06-22T06:06:17;7.00;;;3.52;;
22314;SDS011;11325;55.686;37.566;2023-06-22T06:08:45;4.47;;;3.33;;
22314;SDS011;11325;55.686;37.566;2023-06-22T06:11:24;7.03;;;3.30;;
22314;SDS011;11325;55.686;37.566;2023-06-22T06:13:52;11.25;;;3.70;;
22314;SDS011;11325;55.686;37.566;2023-06-22T06:16:22;6.72;;;3.70;;
22314;SDS011;11325;55.686;37.566;2023-06-22T06:19:01;7.00;;;3.50;;
22314;SDS011;11325;55.686;37.566;2023-06-22T06:21:41;6.10;;;3.15;;
22314;SDS011;11325;55.686;37.566;2023-06-22T06:24:20;5.72;;;3.42;;
22314;SDS011;11325;55.686;37.566;2023-06-22T06:26:48;4.37;;;3.30;;
22314;SDS011;11325;55.686;37.566;2023-06-22T06:29:17;7.95;;;3.70;;
22314;SDS011;11325;55.686;37.566;2023-06-22T06:31:56;6.67;;;3.08;;
22314;SDS011;11325;55.686;37.566;2023-06-22T06:34:26;4.78;;;3.40;;
22314;SDS011;11325;55.686;37.566;2023-06-22T06:37:06;7.00;;;3.55;;
22314;SDS011;11325;55.686;37.566;2023-06-22T06:39:35;14.43;;;3.52;;
22314;SDS011;11325;55.686;37.566;2023-06-22T06:42:14;8.20;;;3.00;;
22314;SDS011;11325;55.686;37.566;2023-06-22T06:44:42;7.00;;;3.65;;
22314;SDS011;11325;55.686;37.566;2023-06-22T06:47:21;4.90;;;3.27;;
22314;SDS011;11325;55.686;37.566;2023-06-22T06:49:49;5.28;;;3.33;;
22314;SDS011;11325;55.686;37.566;2023-06-22T06:52:18;6.78;;;3.50;;
22314;SDS011;11325;55.686;37.566;2023-06-22T06:54:47;5.85;;;4.17;;
22314;SDS011;11325;55.686;37.566;2023-06-22T06:57:26;3.90;;;3.17;;
22314;SDS011;11325;55.686;37.566;2023-06-22T06:59:56;6.75;;;3.65;;
22314;SDS011;11325;55.686;37.566;2023-06-22T07:02:36;3.52;;;3.12;;
22314;SDS011;11325;55.686;37.566;2023-06-22T07:05:15;7.12;;;3.20;;
22314;SDS011;11325;55.686;37.566;2023-06-22T07:07:54;8.73;;;3.47;;
22314;SDS011;11325;55.686;37.566;2023-06-22T07:10:22;7.22;;;3.58;;
22314;SDS011;11325;55.686;37.566;2023-06-22T07:12:51;14.63;;;3.77;;
22314;SDS011;11325;55.686;37.566;2023-06-22T07:15:32;8.23;;;3.00;;
22314;SDS011;11325;55.686;37.566;2023-06-22T07:18:11;7.53;;;3.47;;
22314;SDS011;11325;55.686;37.566;2023-06-22T07:20:50;7.50;;;3.75;;
22314;SDS011;11325;55.686;37.566;2023-06-22T07:23:18;6.60;;;3.72;;
22314;SDS011;11325;55.686;37.566;2023-06-22T07:25:57;5.05;;;3.72;;
22314;SDS011;11325;55.686;37.566;2023-06-22T07:28:36;7.75;;;2.72;;
22314;SDS011;11325;55.686;37.566;2023-06-22T07:31:16;6.12;;;3.40;;
22314;SDS011;11325;55.686;37.566;2023-06-22T07:33:44;9.20;;;4.17;;
22314;SDS011;11325;55.686;37.566;2023-06-22T07:36:13;6.00;;;4.25;;
22314;SDS011;11325;55.686;37.566;2023-06-22T07:38:42;4.08;;;3.40;;
22314;SDS011;11325;55.686;37.566;2023-06-22T07:41:10;4.95;;;3.37;;
22314;SDS011;11325;55.686;37.566;2023-06-22T07:43:48;14.28;;;4.12;;
22314;SDS011;11325;55.686;37.566;2023-06-22T07:46:28;9.93;;;3.62;;
22314;SDS011;11325;55.686;37.566;2023-06-22T07:49:09;17.32;;;4.10;;
22314;SDS011;11325;55.686;37.566;2023-06-22T07:51:49;8.05;;;3.70;;
22314;SDS011;11325;55.686;37.566;2023-06-22T07:54:18;13.45;;;3.65;;
22314;SDS011;11325;55.686;37.566;2023-06-22T07:56:46;14.07;;;3.60;;
22314;SDS011;11325;55.686;37.566;2023-06-22T07:59:15;9.85;;;3.47;;
22314;SDS011;11325;55.686;37.566;2023-06-22T08:01:43;6.80;;;3.22;;
22314;SDS011;11325;55.686;37.566;2023-06-22T08:04:12;14.00;;;4.03;;
22314;SDS011;11325;55.686;37.566;2023-06-22T08:06:51;6.60;;;3.52;;
22314;SDS011;11325;55.686;37.566;2023-06-22T08:09:20;5.08;;;3.70;;
22314;SDS011;11325;55.686;37.566;2023-06-22T08:11:49;9.10;;;3.75;;
22314;SDS011;11325;55.686;37.566;2023-06-22T08:14:29;6.75;;;3.80;;
22314;SDS011;11325;55.686;37.566;2023-06-22T08:16:57;6.92;;;3.58;;
22314;SDS011;11325;55.686;37.566;2023-06-22T08:19:26;5.53;;;3.85;;
22314;SDS011;11325;55.686;37.566;2023-06-22T08:21:55;10.38;;;3.70;;
22314;SDS011;11325;55.686;37.566;2023-06-22T08:24:23;8.05;;;3.87;;
22314;SDS011;11325;55.686;37.566;2023-06-22T08:26:52;8.73;;;3.52;;
22314;SDS011;11325;55.686;37.566;2023-06-22T08:29:20;6.60;;;3.20;;
22314;SDS011;11325;55.686;37.566;2023-06-22T08:31:49;5.83;;;3.72;;
22314;SDS011;11325;55.686;37.566;2023-06-22T08:34:18;8.85;;;3.98;;
22314;SDS011;11325;55.686;37.566;2023-06-22T08:37:00;7.03;;;3.27;;
22314;SDS011;11325;55.686;37.566;2023-06-22T08:39:29;6.47;;;3.45;;
22314;SDS011;11325;55.686;37.566;2023-06-22T08:41:57;7.28;;;4.50;;
22314;SDS011;11325;55.686;37.566;2023-06-22T08:44:36;6.75;;;3.80;;
22314;SDS011;11325;55.686;37.566;2023-06-22T08:47:15;11.25;;;4.12;;
22314;SDS011;11325;55.686;37.566;2023-06-22T08:49:44;10.80;;;4.17;;
22314;SDS011;11325;55.686;37.566;2023-06-22T08:52:23;6.80;;;3.95;;
22314;SDS011;11325;55.686;37.566;2023-06-22T08:55:08;6.70;;;4.08;;
22314;SDS011;11325;55.686;37.566;2023-06-22T08:57:37;6.97;;;4.25;;
22314;SDS011;11325;55.686;37.566;2023-06-22T09:00:17;6.67;;;3.77;;
22314;SDS011;11325;55.686;37.566;2023-06-22T09:02:48;9.10;;;4.00;;
22314;SDS011;11325;55.686;37.566;2023-06-22T09:05:16;6.72;;;3.60;;
22314;SDS011;11325;55.686;37.566;2023-06-22T09:07:45;8.03;;;4.67;;
22314;SDS011;11325;55.686;37.566;2023-06-22T09:10:14;6.70;;;3.85;;
22314;SDS011;11325;55.686;37.566;2023-06-22T09:12:42;8.78;;;3.75;;
22314;SDS011;11325;55.686;37.566;2023-06-22T09:15:11;8.75;;;3.58;;
22314;SDS011;11325;55.686;37.566;2023-06-22T09:17:40;5.40;;;3.42;;
22314;SDS011;11325;55.686;37.566;2023-06-22T09:20:19;8.03;;;3.72;;
22314;SDS011;11325;55.686;37.566;2023-06-22T09:22:48;10.23;;;4.05;;
22314;SDS011;11325;55.686;37.566;2023-06-22T09:25:27;18.25;;;3.58;;
22314;SDS011;11325;55.686;37.566;2023-06-22T09:27:56;14.13;;;3.83;;
22314;SDS011;11325;55.686;37.566;2023-06-22T09:30:34;5.05;;;3.37;;
22314;SDS011;11325;55.686;37.566;2023-06-22T09:33:13;7.28;;;3.80;;
22314;SDS011;11325;55.686;37.566;2023-06-22T09:35:52;7.97;;;4.00;;
22314;SDS011;11325;55.686;37.566;2023-06-22T09:38:20;7.05;;;3.98;;
22314;SDS011;11325;55.686;37.566;2023-06-22T09:40:49;6.15;;;3.98;;
22314;SDS011;11325;55.686;37.566;2023-06-22T09:43:28;10.10;;;4.20;;
22314;SDS011;11325;55.686;37.566;2023-06-22T09:46:07;7.28;;;4.33;;
22314;SDS011;11325;55.686;37.566;2023-06-22T09:48:37;5.72;;;3.87;;
22314;SDS011;11325;55.686;37.566;2023-06-22T09:51:05;8.33;;;4.20;;
22314;SDS011;11325;55.686;37.566;2023-06-22T09:53:44;10.85;;;4.50;;
22314;SDS011;11325;55.686;37.566;2023-06-22T09:56:13;6.97;;;4.17;;
22314;SDS011;11325;55.686;37.566;2023-06-22T09:58:53;8.00;;;4.37;;
22314;SDS011;11325;55.686;37.566;2023-06-22T10:01:32;7.65;;;3.87;;
22314;SDS011;11325;55.686;37.566;2023-06-22T10:04:17;6.72;;;4.20;;
22314;SDS011;11325;55.686;37.566;2023-06-22T10:06:55;4.62;;;3.85;;
22314;SDS011;11325;55.686;37.566;2023-06-22T10:09:24;7.72;;;4.03;;
22314;SDS011;11325;55.686;37.566;2023-06-22T10:12:03;10.18;;;3.95;;
22314;SDS011;11325;55.686;37.566;2023-06-22T10:14:32;9.10;;;3.92;;
22314;SDS011;11325;55.686;37.566;2023-06-22T10:17:11;9.93;;;4.55;;
22314;SDS011;11325;55.686;37.566;2023-06-22T10:19:39;5.60;;;4.30;;
22314;SDS011;11325;55.686;37.566;2023-06-22T10:22:09;6.15;;;3.80;;
22314;SDS011;11325;55.686;37.566;2023-06-22T10:24:48;9.13;;;4.08;;
22314;SDS011;11325;55.686;37.566;2023-06-22T10:27:16;6.15;;;4.35;;
22314;SDS011;11325;55.686;37.566;2023-06-22T10:29:55;5.90;;;3.87;;
22314;SDS011;11325;55.686;37.566;2023-06-22T10:32:24;10.23;;;4.87;;
22314;SDS011;11325;55.686;37.566;2023-06-22T10:34:52;6.67;;;4.40;;
22314;SDS011;11325;55.686;37.566;2023-06-22T10:37:21;6.80;;;4.62;;
22314;SDS011;11325;55.686;37.566;2023-06-22T10:39:49;5.80;;;4.20;;
22314;SDS011;11325;55.686;37.566;2023-06-22T10:42:18;5.90;;;3.98;;
22314;SDS011;11325;55.686;37.566;2023-06-22T10:44:47;6.65;;;4.40;;
22314;SDS011;11325;55.686;37.566;2023-06-22T10:47:15;12.20;;;4.72;;
22314;SDS011;11325;55.686;37.566;2023-06-22T10:49:54;11.80;;;4.17;;
22314;SDS011;11325;55.686;37.566;2023-06-22T10:52:22;8.18;;;4.60;;
22314;SDS011;11325;55.686;37.566;2023-06-22T10:55:01;9.53;;;4.60;;
22314;SDS011;11325;55.686;37.566;2023-06-22T10:57:30;8.48;;;4.55;;
22314;SDS011;11325;55.686;37.566;2023-06-22T11:00:09;8.08;;;4.33;;
22314;SDS011;11325;55.686;37.566;2023-06-22T11:02:39;6.53;;;3.95;;
22314;SDS011;11325;55.686;37.566;2023-06-22T11:05:18;8.20;;;4.40;;
22314;SDS011;11325;55.686;37.566;2023-06-22T11:07:57;6.28;;;4.47;;
22314;SDS011;11325;55.686;37.566;2023-06-22T11:10:36;7.10;;;4.12;;
22314;SDS011;11325;55.686;37.566;2023-06-22T11:13:14;5.78;;;4.30;;
22314;SDS011;11325;55.686;37.566;2023-06-22T11:15:43;6.78;;;4.72;;
22314;SDS011;11325;55.686;37.566;2023-06-22T11:18:22;8.23;;;4.53;;
22314;SDS011;11325;55.686;37.566;2023-06-22T11:20:51;10.43;;;4.37;;
22314;SDS011;11325;55.686;37.566;2023-06-22T11:23:50;5.22;;;4.08;;
22314;SDS011;11325;55.686;37.566;2023-06-22T11:26:29;7.40;;;4.22;;
22314;SDS011;11325;55.686;37.566;2023-06-22T11:28:59;9.18;;;4.22;;
22314;SDS011;11325;55.686;37.566;2023-06-22T11:31:38;7.75;;;4.50;;
22314;SDS011;11325;55.686;37.566;2023-06-22T11:34:17;7.33;;;4.85;;
22314;SDS011;11325;55.686;37.566;2023-06-22T11:36:46;7.83;;;4.20;;
22314;SDS011;11325;55.686;37.566;2023-06-22T11:39:25;7.05;;;4.80;;
22314;SDS011;11325;55.686;37.566;2023-06-22T11:41:53;6.90;;;4.40;;
22314;SDS011;11325;55.686;37.566;2023-06-22T11:44:32;5.75;;;4.50;;
22314;SDS011;11325;55.686;37.566;2023-06-22T11:47:01;8.60;;;4.85;;
22314;SDS011;11325;55.686;37.566;2023-06-22T11:49:42;5.97;;;4.65;;
22314;SDS011;11325;55.686;37.566;2023-06-22T11:52:21;7.78;;;4.97;;
22314;SDS011;11325;55.686;37.566;2023-06-22T11:54:49;7.05;;;5.08;;
22314;SDS011;11325;55.686;37.566;2023-06-22T11:57:28;9.75;;;4.78;;
22314;SDS011;11325;55.686;37.566;2023-06-22T11:59:57;7.80;;;4.92;;
22314;SDS011;11325;55.686;37.566;2023-06-22T12:02:25;8.88;;;4.85;;
22314;SDS011;11325;55.686;37.566;2023-06-22T12:05:10;8.78;;;4.95;;
22314;SDS011;11325;55.686;37.566;2023-06-22T12:07:39;5.92;;;4.55;;
22314;SDS011;11325;55.686;37.566;2023-06-22T12:10:18;5.70;;;4.60;;
22314;SDS011;11325;55.686;37.566;2023-06-22T12:12:57;5.30;;;4.47;;
22314;SDS011;11325;55.686;37.566;2023-06-22T12:15:37;9.05;;;5.30;;
22314;SDS011;11325;55.686;37.566;2023-06-22T12:18:05;9.43;;;5.42;;
22314;SDS011;11325;55.686;37.566;2023-06-22T12:20:44;5.25;;;4.75;;
22314;SDS011;11325;55.686;37.566;2023-06-22T12:23:13;8.50;;;4.80;;
22314;SDS011;11325;55.686;37.566;2023-06-22T12:25:41;11.48;;;4.90;;
22314;SDS011;11325;55.686;37.566;2023-06-22T12:28:10;7.37;;;4.75;;
22314;SDS011;11325;55.686;37.566;2023-06-22T12:30:38;12.10;;;5.12;;
22314;SDS011;11325;55.686;37.566;2023-06-22T12:33:07;9.48;;;4.30;;
22314;SDS011;11325;55.686;37.566;2023-06-22T12:35:48;7.55;;;4.28;;
22314;SDS011;11325;55.686;37.566;2023-06-22T12:38:27;7.60;;;4.28;;
22314;SDS011;11325;55.686;37.566;2023-06-22T12:41:07;6.15;;;4.65;;
22314;SDS011;11325;55.686;37.566;2023-06-22T12:43:46;8.80;;;4.22;;
22314;SDS011;11325;55.686;37.566;2023-06-22T12:46:14;8.53;;;4.60;;
22314;SDS011;11325;55.686;37.566;2023-06-22T12:48:43;4.95;;;3.98;;
22314;SDS011;11325;55.686;37.566;2023-06-22T12:51:22;8.55;;;6.25;;
22314;SDS011;11325;55.686;37.566;2023-06-22T12:54:01;9.50;;;4.42;;
22314;SDS011;11325;55.686;37.566;2023-06-22T12:56:40;8.55;;;4.53;;
22314;SDS011;11325;55.686;37.566;2023-06-22T12:59:10;6.95;;;5.20;;
22314;SDS011;11325;55.686;37.566;2023-06-22T13:01:49;6.55;;;3.87;;
22314;SDS011;11325;55.686;37.566;2023-06-22T13:04:18;14.98;;;4.90;;
22314;SDS011;11325;55.686;37.566;2023-06-22T13:06:57;8.53;;;4.15;;
22314;SDS011;11325;55.686;37.566;2023-06-22T13:09:26;13.75;;;4.42;;
22314;SDS011;11325;55.686;37.566;2023-06-22T13:11:54;6.05;;;3.83;;
22314;SDS011;11325;55.686;37.566;2023-06-22T13:14:23;5.28;;;4.42;;
22314;SDS011;11325;55.686;37.566;2023-06-22T13:16:52;7.20;;;4.45;;
22314;SDS011;11325;55.686;37.566;2023-06-22T13:19:31;6.20;;;4.50;;
22314;SDS011;11325;55.686;37.566;2023-06-22T13:22:00;9.68;;;4.80;;
22314;SDS011;11325;55.686;37.566;2023-06-22T13:24:40;10.68;;;4.80;;
22314;SDS011;11325;55.686;37.566;2023-06-22T13:27:09;8.60;;;4.70;;
22314;SDS011;11325;55.686;37.566;2023-06-22T13:29:48;7.10;;;4.53;;
22314;SDS011;11325;55.686;37.566;2023-06-22T13:32:27;6.20;;;4.45;;
22314;SDS011;11325;55.686;37.566;2023-06-22T13:34:55;13.22;;;4.58;;
22314;SDS011;11325;55.686;37.566;2023-06-22T13:37:25;8.05;;;4.35;;
22314;SDS011;11325;55.686;37.566;2023-06-22T13:39:53;6.17;;;4.62;;
22314;SDS011;11325;55.686;37.566;2023-06-22T13:42:40;7.97;;;4.95;;
22314;SDS011;11325;55.686;37.566;2023-06-22T13:45:09;6.97;;;4.90;;
22314;SDS011;11325;55.686;37.566;2023-06-22T13:47:49;9.60;;;4.37;;
22314;SDS011;11325;55.686;37.566;2023-06-22T13:50:18;10.05;;;5.05;;
22314;SDS011;11325;55.686;37.566;2023-06-22T13:52:57;6.95;;;4.78;;
22314;SDS011;11325;55.686;37.566;2023-06-22T13:55:36;9.93;;;4.67;;
22314;SDS011;11325;55.686;37.566;2023-06-22T13:58:05;6.97;;;4.60;;
22314;SDS011;11325;55.686;37.566;2023-06-22T14:00:33;5.78;;;4.33;;
22314;SDS011;11325;55.686;37.566;2023-06-22T14:03:31;8.78;;;4.80;;
22314;SDS011;11325;55.686;37.566;2023-06-22T14:06:00;10.10;;;5.55;;
22314;SDS011;11325;55.686;37.566;2023-06-22T14:08:42;12.93;;;4.62;;
22314;SDS011;11325;55.686;37.566;2023-06-22T14:11:11;7.58;;;5.12;;
22314;SDS011;11325;55.686;37.566;2023-06-22T14:13:39;7.05;;;4.47;;
22314;SDS011;11325;55.686;37.566;2023-06-22T14:16:20;12.73;;;4.85;;
22314;SDS011;11325;55.686;37.566;2023-06-22T14:18:49;7.67;;;4.87;;
22314;SDS011;11325;55.686;37.566;2023-06-22T14:21:46;8.85;;;5.25;;
22314;SDS011;11325;55.686;37.566;2023-06-22T14:24:25;15.25;;;5.75;;
22314;SDS011;11325;55.686;37.566;2023-06-22T14:26:54;13.85;;;5.20;;
22314;SDS011;11325;55.686;37.566;2023-06-22T14:29:33;8.58;;;4.85;;
22314;SDS011;11325;55.686;37.566;2023-06-22T14:32:02;12.13;;;5.42;;
22314;SDS011;11325;55.686;37.566;2023-06-22T14:34:42;7.37;;;4.90;;
22314;SDS011;11325;55.686;37.566;2023-06-22T14:37:22;7.80;;;4.67;;
22314;SDS011;11325;55.686;37.566;2023-06-22T14:39:51;8.98;;;4.62;;
22314;SDS011;11325;55.686;37.566;2023-06-22T14:42:19;8.88;;;5.12;;
22314;SDS011;11325;55.686;37.566;2023-06-22T14:44:49;5.50;;;4.60;;
22314;SDS011;11325;55.686;37.566;2023-06-22T14:47:29;6.33;;;4.95;;
22314;SDS011;11325;55.686;37.566;2023-06-22T14:49:57;9.90;;;5.72;;
22314;SDS011;11325;55.686;37.566;2023-06-22T14:52:38;8.45;;;4.72;;
22314;SDS011;11325;55.686;37.566;2023-06-22T14:55:07;12.05;;;5.67;;
22314;SDS011;11325;55.686;37.566;2023-06-22T14:57:35;5.95;;;4.80;;
22314;SDS011;11325;55.686;37.566;2023-06-22T15:00:18;6.00;;;4.50;;
22314;SDS011;11325;55.686;37.566;2023-06-22T15:02:47;9.48;;;5.35;;
22314;SDS011;11325;55.686;37.566;2023-06-22T15:05:46;5.58;;;4.62;;
22314;SDS011;11325;55.686;37.566;2023-06-22T15:08:14;11.00;;;4.50;;
22314;SDS011;11325;55.686;37.566;2023-06-22T15:10:43;7.05;;;6.28;;
22314;SDS011;11325;55.686;37.566;2023-06-22T15:13:22;13.22;;;5.53;;
22314;SDS011;11325;55.686;37.566;2023-06-22T15:16:01;6.17;;;4.60;;
22314;SDS011;11325;55.686;37.566;2023-06-22T15:18:33;8.23;;;5.53;;
22314;SDS011;11325;55.686;37.566;2023-06-22T15:21:13;5.95;;;4.50;;